M/V C0sta Favolosa — ICPK — position and weather

sailwx.info

Track history (hours):
 
Tides and Currents Weather Stations Pressure Air Temp Water Temp Dewpoint Dewpoint Depression Visibility Wind Speed Wind Dir Waves Ship Positions

M/V C0sta Favolosa

Last reported at 2018-Jul-22 06:53 UTC. Time now 2018-Jul-22 07:00 UTC.
Position N 57°47' E 006°50'.

Length 289 m; draft 8.3 m.

Type: Ship. MMSI: 247311100.

Date/timePositionNaut miles runAvg speedWind from/ knotsBaromVisibWave heightAir tempDewpointWater temp
2018-Jul-22 06:53N 57°47' E 006°50'819.6
2018-Jul-22 06:29N 57°47' E 007°05'919.4
2018-Jul-22 06:00N 57°46' E 007°22'1019.4
2018-Jul-22 05:30N 57°46' E 007°41'1019.2
2018-Jul-22 05:00N 57°46' E 007°59'4718.3
2018-Jul-22 02:27N 57°49' E 009°26'2317.3
2018-Jul-22 01:08N 57°50' E 010°09'217.0
2018-Jul-22 01:00N 57°50' E 010°13'816.9
2018-Jul-22 00:30N 57°50' E 010°29'816.7
2018-Jul-22 00:00N 57°50' E 010°44'917.2
2018-Jul-21 23:30N 57°45' E 010°57'918.5
2018-Jul-21 23:00N 57°38' E 011°09'918.4
2018-Jul-21 22:30N 57°32' E 011°21'918.7
2018-Jul-21 22:00N 57°24' E 011°30'1019.7
2018-Jul-21 21:30N 57°15' E 011°37'1019.9
2018-Jul-21 21:00N 57°05' E 011°43'1019.8
2018-Jul-21 20:29N 56°56' E 011°49'4218.6
2018-Jul-21 18:15N 56°16' E 012°12'518.7
2018-Jul-21 18:00N 56°13' E 012°19'918.3
2018-Jul-21 17:30N 56°08' E 012°32'917.1
2018-Jul-21 17:00N 56°01' E 012°41'917.1
2018-Jul-21 16:30N 55°53' E 012°44'816.5
2018-Jul-21 16:00N 55°44' E 012°41'2 4.3
2018-Jul-21 15:28N 55°43' E 012°38'0 0.0
2018-Jul-21 14:58N 55°43' E 012°38'0 0.0
2018-Jul-21 14:28N 55°43' E 012°38'0 0.0
2018-Jul-21 14:00N 55°43' E 012°38'0 0.0
2018-Jul-21 13:29N 55°43' E 012°38'0 0.0
2018-Jul-21 12:59N 55°43' E 012°38'0 0.0
2018-Jul-21 12:29N 55°43' E 012°38'0 0.0
2018-Jul-21 12:00N 55°43' E 012°38'0 0.0
2018-Jul-21 11:30N 55°43' E 012°38'0 0.0
2018-Jul-21 10:59N 55°43' E 012°38'0 0.0
2018-Jul-21 10:29N 55°43' E 012°38'0 0.0
2018-Jul-21 09:59N 55°43' E 012°38'0 0.0
2018-Jul-21 09:28N 55°43' E 012°38'0 0.0
2018-Jul-21 08:58N 55°43' E 012°38'0 0.0
2018-Jul-21 08:28N 55°43' E 012°38'0 0.0
2018-Jul-21 07:58N 55°43' E 012°38'0 0.0
2018-Jul-21 07:30N 55°43' E 012°38'0 0.0
2018-Jul-21 06:59N 55°43' E 012°38'0 0.0
2018-Jul-21 06:29N 55°43' E 012°38'0 0.0
2018-Jul-21 06:00N 55°43' E 012°38'0 0.3
2018-Jul-21 05:30N 55°43' E 012°38'3 5.6
2018-Jul-21 05:00N 55°45' E 012°41'612.4
2018-Jul-21 04:31N 55°51' E 012°41'918.9
2018-Jul-21 04:01N 56°01' E 012°40'1020.4
2018-Jul-21 03:30N 56°08' E 012°28'1719.8
2018-Jul-21 02:37N 56°10' E 011°57'320.4
2018-Jul-21 02:29N 56°09' E 011°52'1020.2
2018-Jul-21 02:00N 56°08' E 011°35'1020.4
2018-Jul-21 01:31N 56°08' E 011°16'918.8
2018-Jul-21 01:00N 56°01' E 011°05'1020.6
2018-Jul-21 00:31N 55°53' E 010°54'1020.2
2018-Jul-21 00:01N 55°43' E 010°48'1120.2
2018-Jul-20 23:27N 55°32' E 010°52'920.0
2018-Jul-20 23:01N 55°25' E 011°01'916.8
2018-Jul-20 22:30N 55°16' E 011°04'817.0
2018-Jul-20 22:00N 55°08' E 011°03'1019.8
2018-Jul-20 21:31N 54°58' E 011°00'917.2
2018-Jul-20 21:00N 54°51' E 010°53'917.2
2018-Jul-20 20:31N 54°42' E 010°54'917.9
2018-Jul-20 20:01N 54°38' E 011°07'918.9
2018-Jul-20 19:30N 54°33' E 011°21'918.6
2018-Jul-20 19:00N 54°29' E 011°36'918.1
2018-Jul-20 18:31N 54°25' E 011°49'917.4
2018-Jul-20 18:01N 54°20' E 012°01'712.9
2018-Jul-20 17:30N 54°13' E 012°04'3 4.9
2018-Jul-20 16:55N 54°11' E 012°06'0 0.0
2018-Jul-20 15:37N 54°11' E 012°06'0 0.0
2018-Jul-20 15:25N 54°11' E 012°06'0 0.0
2018-Jul-20 14:52N 54°11' E 012°06'0 0.0
2018-Jul-20 14:19N 54°11' E 012°06'0 0.0
2018-Jul-20 13:58N 54°11' E 012°06'0 0.0
2018-Jul-20 13:28N 54°11' E 012°06'0 0.0
2018-Jul-20 11:52N 54°11' E 012°06'0 0.0
2018-Jul-20 06:43N 54°11' E 012°06'0 0.0
2018-Jul-20 06:16N 54°11' E 012°06'0 0.0
2018-Jul-20 05:43N 54°11' E 012°06'0 0.0
2018-Jul-20 05:30N 54°11' E 012°06'1 1.3
2018-Jul-20 05:00N 54°10' E 012°06'7 6.3
2018-Jul-20 03:49N 54°16' E 011°60'712.8
2018-Jul-20 03:16N 54°21' E 011°50'312.6
2018-Jul-20 03:00N 54°24' E 011°48'713.3
2018-Jul-20 02:30N 54°27' E 011°38'713.1
2018-Jul-20 02:00N 54°30' E 011°28'612.9
2018-Jul-20 01:30N 54°33' E 011°18'612.6
2018-Jul-20 01:00N 54°36' E 011°08'612.8
2018-Jul-20 00:30N 54°39' E 010°58'612.2
2018-Jul-20 00:00N 54°44' E 010°51'713.3
2018-Jul-19 23:30N 54°50' E 010°51'713.1
2018-Jul-19 23:01N 54°56' E 010°56'612.9
2018-Jul-19 22:31N 55°02' E 011°01'613.0
2018-Jul-19 22:00N 55°08' E 011°02'612.7
2018-Jul-19 21:31N 55°14' E 011°05'713.5
2018-Jul-19 20:59N 55°21' E 011°02'5312.8
2018-Jul-19 16:52N 56°08' E 010°20'4 9.6
2018-Jul-19 16:30N 56°10' E 010°14'1 1.1
2018-Jul-19 15:44N 56°09' E 010°13'0 0.0
2018-Jul-19 15:26N 56°09' E 010°13'0 0.0
2018-Jul-19 14:29N 56°09' E 010°13'0 0.0
2018-Jul-19 13:30N 56°09' E 010°13'0 0.0
2018-Jul-19 13:00N 56°09' E 010°13'0 0.0
2018-Jul-19 12:30N 56°09' E 010°13'0 0.0
2018-Jul-19 11:54N 56°09' E 010°13'0 0.0
2018-Jul-19 11:30N 56°09' E 010°13'0 0.0
2018-Jul-19 10:57N 56°09' E 010°13'0 0.0
2018-Jul-19 10:30N 56°09' E 010°13'0 0.0
2018-Jul-19 10:00N 56°09' E 010°13'0 0.0
2018-Jul-19 09:30N 56°09' E 010°13'0 0.0
2018-Jul-19 08:12N 56°09' E 010°13'0 0.0
2018-Jul-19 07:57N 56°09' E 010°13'0 0.0
2018-Jul-19 07:12N 56°09' E 010°13'0 0.0
2018-Jul-19 07:00N 56°09' E 010°13'0 0.5
2018-Jul-19 06:30N 56°10' E 010°14'1 1.1
2018-Jul-19 06:00N 56°10' E 010°15'4 7.0
2018-Jul-19 05:29N 56°08' E 010°20'613.5
2018-Jul-19 05:00N 56°05' E 010°31'916.8
2018-Jul-19 04:30N 56°03' E 010°46'815.3
2018-Jul-19 04:00N 56°07' E 010°57'1818.5
2018-Jul-19 03:03N 56°24' E 011°05'418.0
2018-Jul-19 02:50N 56°27' E 011°10'618.4
2018-Jul-19 02:30N 56°31' E 011°19'1519.0
2018-Jul-19 01:44N 56°40' E 011°40'519.3
2018-Jul-19 01:29N 56°42' E 011°47'917.5
2018-Jul-19 01:00N 56°51' E 011°49'1021.4
2018-Jul-19 00:30N 57°01' E 011°42'1121.4
2018-Jul-19 00:00N 57°10' E 011°34'1121.8
2018-Jul-18 23:30N 57°21' E 011°28'1121.5
2018-Jul-18 23:00N 57°30' E 011°18'1121.5
2018-Jul-18 22:30N 57°37' E 011°03'1020.7
2018-Jul-18 22:00N 57°44' E 010°48'1020.9
2018-Jul-18 21:30N 57°50' E 010°32'1122.1
2018-Jul-18 21:00N 57°51' E 010°11'1121.3
2018-Jul-18 20:31N 57°50' E 009°52'1121.7
2018-Jul-18 19:59N 57°50' E 009°30'1021.7
2018-Jul-18 19:30N 57°52' E 009°11'1122.0
2018-Jul-18 19:00N 57°53' E 008°50'1121.5
2018-Jul-18 18:31N 57°55' E 008°31'1121.5
2018-Jul-18 18:00N 58°01' E 008°13'815.5
2018-Jul-18 17:30N 58°06' E 008°03'3 5.3
2018-Jul-18 17:00N 58°08' E 007°60'0 0.0
2018-Jul-18 16:30N 58°08' E 007°60'0 0.0
2018-Jul-18 16:00N 58°08' E 007°60'0 0.0
2018-Jul-18 15:30N 58°08' E 007°60'0 0.0
2018-Jul-18 15:00N 58°08' E 007°60'0 0.0
2018-Jul-18 14:30N 58°08' E 007°60'0 0.0
2018-Jul-18 13:30N 58°08' E 007°60'0 0.0
2018-Jul-18 13:00N 58°08' E 007°60'0 0.0
2018-Jul-18 12:30N 58°08' E 007°60'0 0.0
2018-Jul-18 12:00N 58°08' E 007°60'0 0.0
2018-Jul-18 11:30N 58°08' E 007°60'0 0.0
2018-Jul-18 10:30N 58°08' E 007°60'0 0.0
2018-Jul-18 10:00N 58°08' E 007°60'0 0.8
2018-Jul-18 09:30N 58°08' E 007°59'4 8.3
2018-Jul-18 09:00N 58°05' E 008°04'611.6
2018-Jul-18 08:30N 57°59' E 008°06'815.9
2018-Jul-18 08:00N 57°51' E 008°06'1017.3
2018-Jul-18 07:24N 57°41' E 007°60'819.1
2018-Jul-18 07:00N 57°42' E 007°45'919.3
2018-Jul-18 06:30N 57°42' E 007°28'1019.0
2018-Jul-18 06:00N 57°43' E 007°10'4518.1
2018-Jul-18 03:31N 58°02' E 005°53'319.7
2018-Jul-18 03:22N 58°04' E 005°49'719.4
2018-Jul-18 03:00N 58°08' E 005°39'919.2
2018-Jul-18 02:30N 58°15' E 005°25'1019.8
2018-Jul-18 02:00N 58°21' E 005°11'1019.4
2018-Jul-18 01:30N 58°29' E 004°60'1019.4
2018-Jul-18 00:59N 58°37' E 004°50'1019.8
2018-Jul-18 00:30N 58°47' E 004°44'1020.0
2018-Jul-17 23:59N 58°56' E 004°38'1020.1
2018-Jul-17 23:29N 59°06' E 004°31'920.1
2018-Jul-17 23:00N 59°15' E 004°26'1219.9
2018-Jul-17 22:25N 59°27' E 004°25'5119.5
2018-Jul-17 19:50N 60°17' E 004°27'620.1
2018-Jul-17 19:31N 60°24' E 004°28'1019.8
2018-Jul-17 19:00N 60°34' E 004°28'1019.2
2018-Jul-17 18:30N 60°43' E 004°31'816.4
2018-Jul-17 18:00N 60°43' E 004°48'815.3
2018-Jul-17 17:30N 60°36' E 004°54'1019.4
2018-Jul-17 17:00N 60°27' E 005°01'611.7
2018-Jul-17 16:28N 60°23' E 005°12'4 7.0
2018-Jul-17 15:57N 60°24' E 005°19'0 0.0
2018-Jul-17 15:25N 60°24' E 005°19'0 0.0
2018-Jul-17 14:58N 60°24' E 005°19'0 0.0
2018-Jul-17 14:28N 60°24' E 005°19'0 0.0
2018-Jul-17 13:58N 60°24' E 005°19'0 0.0
2018-Jul-17 13:28N 60°24' E 005°19'0 0.0
2018-Jul-17 12:55N 60°24' E 005°19'0 0.0
2018-Jul-17 12:28N 60°24' E 005°19'0 0.0
2018-Jul-17 11:58N 60°24' E 005°19'0 0.0
2018-Jul-17 11:28N 60°24' E 005°19'0 0.0
2018-Jul-17 10:58N 60°24' E 005°19'0 0.0
2018-Jul-17 10:28N 60°24' E 005°19'0 0.0
2018-Jul-17 09:58N 60°24' E 005°19'0 0.0
2018-Jul-17 09:28N 60°24' E 005°19'0 0.0
2018-Jul-17 08:58N 60°24' E 005°19'0 0.0
2018-Jul-17 08:28N 60°24' E 005°19'0 0.0
2018-Jul-17 07:55N 60°24' E 005°19'0 0.0
2018-Jul-17 07:28N 60°24' E 005°19'0 0.0
2018-Jul-17 06:58N 60°24' E 005°19'0 0.0
2018-Jul-17 06:28N 60°24' E 005°19'0 0.0
2018-Jul-17 05:58N 60°24' E 005°19'0 0.0
2018-Jul-17 05:28N 60°24' E 005°19'0 0.6
2018-Jul-17 05:00N 60°24' E 005°18'3 6.8
2018-Jul-17 04:29N 60°23' E 005°12'4 9.1
2018-Jul-17 04:00N 60°25' E 005°04'814.9
2018-Jul-17 03:29N 60°32' E 004°57'917.9
2018-Jul-17 03:00N 60°40' E 004°50'613.2
2018-Jul-17 02:30N 60°45' E 004°41'918.0
2018-Jul-17 01:59N 60°50' E 004°25'919.0
2018-Jul-17 01:30N 60°59' E 004°19'1121.0
2018-Jul-17 01:00N 61°09' E 004°18'3620.7
2018-Jul-16 23:17N 61°45' E 004°23'620.6
2018-Jul-16 23:00N 61°50' E 004°27'1021.0
2018-Jul-16 22:30N 61°59' E 004°37'1121.1
2018-Jul-16 22:00N 62°08' E 004°49'1121.4
2018-Jul-16 21:30N 62°17' E 005°02'1121.4
2018-Jul-16 21:00N 62°25' E 005°17'1020.8
2018-Jul-16 20:30N 62°30' E 005°37'1019.7
2018-Jul-16 20:00N 62°27' E 005°57'612.7
2018-Jul-16 19:30N 62°23' E 006°08'918.4
2018-Jul-16 19:01N 62°25' E 006°27'918.2
2018-Jul-16 18:30N 62°27' E 006°46'815.4
2018-Jul-16 18:00N 62°21' E 006°56'917.5
2018-Jul-16 17:30N 62°13' E 007°02'816.0
2018-Jul-16 17:01N 62°06' E 006°53'0 0.1
2018-Jul-16 15:26N 62°06' E 006°53'2 3.1
2018-Jul-16 14:56N 62°06' E 006°56'3 7.7
2018-Jul-16 14:30N 62°05' E 007°03'4 7.8
2018-Jul-16 13:58N 62°06' E 007°11'0 0.4
2018-Jul-16 13:28N 62°06' E 007°11'0 0.0
2018-Jul-16 12:58N 62°06' E 007°11'0 0.0
2018-Jul-16 12:28N 62°06' E 007°11'0 0.0
2018-Jul-16 11:58N 62°06' E 007°11'0 0.0
2018-Jul-16 11:28N 62°06' E 007°11'0 0.0
2018-Jul-16 11:00N 62°06' E 007°11'0 0.0
2018-Jul-16 10:29N 62°06' E 007°11'0 0.0
2018-Jul-16 09:59N 62°06' E 007°11'0 0.0
2018-Jul-16 09:29N 62°06' E 007°11'0 0.0
2018-Jul-16 09:00N 62°06' E 007°11'0 0.0
2018-Jul-16 08:28N 62°06' E 007°11'0 0.0
2018-Jul-16 07:58N 62°06' E 007°11'0 0.0
2018-Jul-16 07:28N 62°06' E 007°11'0 0.0
2018-Jul-16 06:58N 62°06' E 007°11'0 0.0
2018-Jul-16 06:28N 62°06' E 007°11'0 0.0
2018-Jul-16 05:58N 62°06' E 007°11'0 0.1
2018-Jul-16 05:30N 62°06' E 007°11'0 0.2
2018-Jul-16 05:00N 62°06' E 007°11'2 4.8
2018-Jul-16 04:30N 62°06' E 007°06'4 8.3
2018-Jul-16 04:00N 62°09' E 006°59'815.1
2018-Jul-16 03:30N 62°16' E 007°02'816.1
2018-Jul-16 03:00N 62°24' E 006°56'713.6
2018-Jul-16 02:30N 62°27' E 006°43'713.7
2018-Jul-16 02:00N 62°25' E 006°29'714.9
2018-Jul-16 01:30N 62°23' E 006°13'714.4
2018-Jul-16 01:00N 62°26' E 005°60'815.0
2018-Jul-16 00:30N 62°30' E 005°45'917.5
2018-Jul-16 00:00N 62°31' E 005°26'918.4
2018-Jul-15 23:30N 62°26' E 005°10'1019.1
2018-Jul-15 23:00N 62°19' E 004°57'1019.1
2018-Jul-15 22:30N 62°12' E 004°43'18419.2
2018-Jul-15 12:57N 59°09' E 004°12'919.5
2018-Jul-15 12:30N 59°00' E 004°13'1019.9
2018-Jul-15 11:59N 58°53' E 004°27'919.7
2018-Jul-15 11:30N 58°46' E 004°40'1019.9
2018-Jul-15 11:00N 58°39' E 004°53'1020.0
2018-Jul-15 10:30N 58°31' E 005°06'1019.6
2018-Jul-15 09:59N 58°24' E 005°20'919.5
2018-Jul-15 09:30N 58°18' E 005°33'1019.8
2018-Jul-15 09:00N 58°11' E 005°47'1019.3
2018-Jul-15 08:30N 58°05' E 006°01'1019.8
2018-Jul-15 08:00N 57°58' E 006°15'2018.8
2018-Jul-15 06:55N 57°48' E 006°47'819.7
2018-Jul-15 06:30N 57°47' E 007°03'1019.3
2018-Jul-15 06:00N 57°47' E 007°21'919.0
2018-Jul-15 05:30N 57°46' E 007°39'1018.8
2018-Jul-15 05:00N 57°46' E 007°57'918.8
2018-Jul-15 04:31N 57°46' E 008°14'918.5
2018-Jul-15 04:00N 57°47' E 008°31'1418.2
2018-Jul-15 03:16N 57°48' E 008°57'1118.0
2018-Jul-15 02:38N 57°48' E 009°18'318.0
2018-Jul-15 02:29N 57°48' E 009°23'918.0
2018-Jul-15 02:00N 57°49' E 009°39'917.8
2018-Jul-15 01:30N 57°49' E 009°56'918.0
2018-Jul-15 01:00N 57°50' E 010°13'917.4
2018-Jul-15 00:30N 57°51' E 010°29'816.7
2018-Jul-15 00:01N 57°51' E 010°45'918.2
2018-Jul-14 23:30N 57°44' E 010°57'919.0
2018-Jul-14 23:00N 57°38' E 011°10'1019.5
2018-Jul-14 22:31N 57°31' E 011°23'1019.2
2018-Jul-14 22:00N 57°22' E 011°31'1019.1
2018-Jul-14 21:30N 57°13' E 011°37'1019.4
2018-Jul-14 21:00N 57°04' E 011°43'1019.3
2018-Jul-14 20:30N 56°55' E 011°50'1018.6
2018-Jul-14 19:59N 56°47' E 011°58'918.5
2018-Jul-14 19:31N 56°38' E 011°58'1019.0
2018-Jul-14 19:00N 56°29' E 012°01'1018.6
2018-Jul-14 18:29N 56°19' E 012°07'919.2
2018-Jul-14 18:00N 56°14' E 012°19'918.6
2018-Jul-14 17:31N 56°08' E 012°32'714.8
2018-Jul-14 17:00N 56°02' E 012°40'714.9
2018-Jul-14 16:30N 55°55' E 012°45'917.3
2018-Jul-14 16:00N 55°46' E 012°42'4 8.2
2018-Jul-14 15:30N 55°43' E 012°38'0 0.0
2018-Jul-14 15:00N 55°43' E 012°38'0 0.0
2018-Jul-14 14:00N 55°43' E 012°38'0 0.0
2018-Jul-14 13:28N 55°43' E 012°38'0 0.0
2018-Jul-14 13:00N 55°43' E 012°38'0 0.0
2018-Jul-14 12:30N 55°43' E 012°38'0 0.0
2018-Jul-14 11:59N 55°43' E 012°38'0 0.0
2018-Jul-14 11:28N 55°43' E 012°38'0 0.0
2018-Jul-14 10:58N 55°43' E 012°38'0 0.0
2018-Jul-14 10:28N 55°43' E 012°38'0 0.0
2018-Jul-14 09:58N 55°43' E 012°38'0 0.0
2018-Jul-14 09:30N 55°43' E 012°38'0 0.0
2018-Jul-14 08:59N 55°43' E 012°38'0 0.0
2018-Jul-14 08:28N 55°43' E 012°38'0 0.0
2018-Jul-14 07:58N 55°43' E 012°38'0 0.0
2018-Jul-14 07:28N 55°43' E 012°38'0 0.0
2018-Jul-14 06:58N 55°43' E 012°38'0 0.0
2018-Jul-14 06:28N 55°43' E 012°38'0 0.0
2018-Jul-14 06:00N 55°43' E 012°38'0 0.0
2018-Jul-14 05:31N 55°43' E 012°38'1 1.7
2018-Jul-14 05:00N 55°43' E 012°39'714.5
2018-Jul-14 04:30N 55°50' E 012°42'918.5
2018-Jul-14 04:00N 55°60' E 012°40'1019.8
2018-Jul-14 03:30N 56°07' E 012°30'1020.3
2018-Jul-14 03:01N 56°12' E 012°13'1120.7
2018-Jul-14 02:30N 56°09' E 011°55'1120.8
2018-Jul-14 01:59N 56°08' E 011°36'1020.7
2018-Jul-14 01:30N 56°08' E 011°18'1119.2
2018-Jul-14 00:56N 56°00' E 011°05'921.3
2018-Jul-14 00:30N 55°53' E 010°55'1318.0
2018-Jul-13 23:47N 55°41' E 010°48'1420.1
2018-Jul-13 23:05N 55°27' E 010°57'219.6
2018-Jul-13 22:59N 55°26' E 010°58'919.0
2018-Jul-13 22:30N 55°17' E 011°04'918.7
2018-Jul-13 22:00N 55°08' E 011°03'1019.8
2018-Jul-13 21:30N 54°58' E 011°00'1019.4
2018-Jul-13 21:00N 54°50' E 010°52'917.6
2018-Jul-13 20:30N 54°41' E 010°56'918.2
2018-Jul-13 20:00N 54°37' E 011°09'918.5
2018-Jul-13 19:30N 54°32' E 011°23'918.2
2018-Jul-13 18:59N 54°28' E 011°38'817.5
2018-Jul-13 18:30N 54°24' E 011°51'917.1
2018-Jul-13 18:00N 54°18' E 012°02'612.0
2018-Jul-13 17:30N 54°13' E 012°05'2 4.5
2018-Jul-13 17:01N 54°10' E 012°06'0 0.0
2018-Jul-13 16:29N 54°10' E 012°06'0 0.0
2018-Jul-13 15:59N 54°10' E 012°06'0 0.0
2018-Jul-13 15:23N 54°10' E 012°06'0 0.0
2018-Jul-13 14:59N 54°10' E 012°06'0 0.0
2018-Jul-13 13:59N 54°10' E 012°06'0 0.0
2018-Jul-13 13:29N 54°10' E 012°06'0 0.0
2018-Jul-13 12:53N 54°10' E 012°06'0 0.0
2018-Jul-13 12:26N 54°10' E 012°06'0 0.0
2018-Jul-13 11:59N 54°10' E 012°06'0 0.0
2018-Jul-13 11:29N 54°10' E 012°06'0 0.0
2018-Jul-13 10:44N 54°10' E 012°06'0 0.0
2018-Jul-13 10:23N 54°10' E 012°06'0 0.0
2018-Jul-13 08:38N 54°10' E 012°06'0 0.1
2018-Jul-13 08:29N 54°10' E 012°06'0 0.0
2018-Jul-13 07:59N 54°10' E 012°06'0 0.0
2018-Jul-13 07:29N 54°10' E 012°06'0 0.0
2018-Jul-13 06:59N 54°10' E 012°06'0 0.0
2018-Jul-13 06:29N 54°10' E 012°06'0 0.0
2018-Jul-13 05:59N 54°10' E 012°06'0 0.0
2018-Jul-13 05:29N 54°10' E 012°06'0 0.0
2018-Jul-13 05:00N 54°10' E 012°06'1 1.9
2018-Jul-13 04:30N 54°11' E 012°05'5 9.6
2018-Jul-13 04:00N 54°16' E 012°01'5 9.9
2018-Jul-13 03:30N 54°19' E 011°56'917.5
2018-Jul-13 03:00N 54°25' E 011°44'918.6
2018-Jul-13 02:30N 54°29' E 011°30'714.1
2018-Jul-13 02:00N 54°32' E 011°19'713.4
2018-Jul-13 01:30N 54°35' E 011°09'713.0
2018-Jul-13 01:00N 54°39' E 010°59'612.5
2018-Jul-13 00:30N 54°43' E 010°51'612.8
2018-Jul-13 00:00N 54°49' E 010°51'612.0
2018-Jul-12 23:30N 54°55' E 010°54'612.0
2018-Jul-12 23:00N 54°60' E 011°01'612.3
2018-Jul-12 22:30N 55°06' E 011°02'611.9
2018-Jul-12 22:00N 55°12' E 011°05'611.9
2018-Jul-12 21:30N 55°18' E 011°03'712.4
2018-Jul-12 20:58N 55°24' E 010°60'613.0
2018-Jul-12 20:30N 55°29' E 010°54'1615.0
2018-Jul-12 19:26N 55°45' E 010°48'717.0
2018-Jul-12 19:00N 55°52' E 010°52'816.9
2018-Jul-12 18:30N 55°58' E 011°01'510.2
2018-Jul-12 18:00N 56°03' E 010°57'1817.9
2018-Jul-12 16:59N 56°07' E 010°25'611.8
2018-Jul-12 16:27N 56°10' E 010°15'1 2.2
2018-Jul-12 16:00N 56°09' E 010°13'0 0.0
2018-Jul-12 15:08N 56°09' E 010°13'0 0.0
2018-Jul-12 14:56N 56°09' E 010°13'0 0.0
2018-Jul-12 14:20N 56°09' E 010°13'0 0.0
2018-Jul-12 13:59N 56°09' E 010°13'0 0.0
2018-Jul-12 13:26N 56°09' E 010°13'0 0.0
2018-Jul-12 12:56N 56°09' E 010°13'0 0.0
2018-Jul-12 12:29N 56°09' E 010°13'0 0.0
2018-Jul-12 11:59N 56°09' E 010°13'0 0.0
2018-Jul-12 11:29N 56°09' E 010°13'0 0.0
2018-Jul-12 10:56N 56°09' E 010°13'0 0.0
2018-Jul-12 10:29N 56°09' E 010°13'0 0.0
2018-Jul-12 09:59N 56°09' E 010°13'0 0.0
2018-Jul-12 09:29N 56°09' E 010°13'0 0.0
2018-Jul-12 08:56N 56°09' E 010°13'0 0.0
2018-Jul-12 08:26N 56°09' E 010°13'0 0.0
2018-Jul-12 07:56N 56°09' E 010°13'0 0.0
2018-Jul-12 07:18N 56°09' E 010°13'0 0.1
2018-Jul-12 07:00N 56°09' E 010°13'  
Track history (hours):
 
Tides and Currents Weather Stations Pressure Air Temp Water Temp Dewpoint Dewpoint Depression Visibility Wind Speed Wind Dir Waves Ship Positions

M/V C0sta Favolosa

Last reported at 2018-Jul-22 06:53 UTC. Time now 2018-Jul-22 07:00 UTC.
Position N 57°47' E 006°50'.

Length 289 m; draft 8.3 m.

Type: Ship. MMSI: 247311100.

Date/timePositionNaut miles runAvg speedWind from/ knotsBaromVisibWave heightAir tempDewpointWater temp
2018-Jul-22 06:53N 57°47' E 006°50'819.6
2018-Jul-22 06:29N 57°47' E 007°05'919.4
2018-Jul-22 06:00N 57°46' E 007°22'1019.4
2018-Jul-22 05:30N 57°46' E 007°41'1019.2
2018-Jul-22 05:00N 57°46' E 007°59'4718.3
2018-Jul-22 02:27N 57°49' E 009°26'2317.3
2018-Jul-22 01:08N 57°50' E 010°09'217.0
2018-Jul-22 01:00N 57°50' E 010°13'816.9
2018-Jul-22 00:30N 57°50' E 010°29'816.7
2018-Jul-22 00:00N 57°50' E 010°44'917.2
2018-Jul-21 23:30N 57°45' E 010°57'918.5
2018-Jul-21 23:00N 57°38' E 011°09'918.4
2018-Jul-21 22:30N 57°32' E 011°21'918.7
2018-Jul-21 22:00N 57°24' E 011°30'1019.7
2018-Jul-21 21:30N 57°15' E 011°37'1019.9
2018-Jul-21 21:00N 57°05' E 011°43'1019.8
2018-Jul-21 20:29N 56°56' E 011°49'4218.6
2018-Jul-21 18:15N 56°16' E 012°12'518.7
2018-Jul-21 18:00N 56°13' E 012°19'918.3
2018-Jul-21 17:30N 56°08' E 012°32'917.1
2018-Jul-21 17:00N 56°01' E 012°41'917.1
2018-Jul-21 16:30N 55°53' E 012°44'816.5
2018-Jul-21 16:00N 55°44' E 012°41'2 4.3
2018-Jul-21 15:28N 55°43' E 012°38'0 0.0
2018-Jul-21 14:58N 55°43' E 012°38'0 0.0
2018-Jul-21 14:28N 55°43' E 012°38'0 0.0
2018-Jul-21 14:00N 55°43' E 012°38'0 0.0
2018-Jul-21 13:29N 55°43' E 012°38'0 0.0
2018-Jul-21 12:59N 55°43' E 012°38'0 0.0
2018-Jul-21 12:29N 55°43' E 012°38'0 0.0
2018-Jul-21 12:00N 55°43' E 012°38'0 0.0
2018-Jul-21 11:30N 55°43' E 012°38'0 0.0
2018-Jul-21 10:59N 55°43' E 012°38'0 0.0
2018-Jul-21 10:29N 55°43' E 012°38'0 0.0
2018-Jul-21 09:59N 55°43' E 012°38'0 0.0
2018-Jul-21 09:28N 55°43' E 012°38'0 0.0
2018-Jul-21 08:58N 55°43' E 012°38'0 0.0
2018-Jul-21 08:28N 55°43' E 012°38'0 0.0
2018-Jul-21 07:58N 55°43' E 012°38'0 0.0
2018-Jul-21 07:30N 55°43' E 012°38'0 0.0
2018-Jul-21 06:59N 55°43' E 012°38'0 0.0
2018-Jul-21 06:29N 55°43' E 012°38'0 0.0
2018-Jul-21 06:00N 55°43' E 012°38'0 0.3
2018-Jul-21 05:30N 55°43' E 012°38'3 5.6
2018-Jul-21 05:00N 55°45' E 012°41'612.4
2018-Jul-21 04:31N 55°51' E 012°41'918.9
2018-Jul-21 04:01N 56°01' E 012°40'1020.4
2018-Jul-21 03:30N 56°08' E 012°28'1719.8
2018-Jul-21 02:37N 56°10' E 011°57'320.4
2018-Jul-21 02:29N 56°09' E 011°52'1020.2
2018-Jul-21 02:00N 56°08' E 011°35'1020.4
2018-Jul-21 01:31N 56°08' E 011°16'918.8
2018-Jul-21 01:00N 56°01' E 011°05'1020.6
2018-Jul-21 00:31N 55°53' E 010°54'1020.2
2018-Jul-21 00:01N 55°43' E 010°48'1120.2
2018-Jul-20 23:27N 55°32' E 010°52'920.0
2018-Jul-20 23:01N 55°25' E 011°01'916.8
2018-Jul-20 22:30N 55°16' E 011°04'817.0
2018-Jul-20 22:00N 55°08' E 011°03'1019.8
2018-Jul-20 21:31N 54°58' E 011°00'917.2
2018-Jul-20 21:00N 54°51' E 010°53'917.2
2018-Jul-20 20:31N 54°42' E 010°54'917.9
2018-Jul-20 20:01N 54°38' E 011°07'918.9
2018-Jul-20 19:30N 54°33' E 011°21'918.6
2018-Jul-20 19:00N 54°29' E 011°36'918.1
2018-Jul-20 18:31N 54°25' E 011°49'917.4
2018-Jul-20 18:01N 54°20' E 012°01'712.9
2018-Jul-20 17:30N 54°13' E 012°04'3 4.9
2018-Jul-20 16:55N 54°11' E 012°06'0 0.0
2018-Jul-20 15:37N 54°11' E 012°06'0 0.0
2018-Jul-20 15:25N 54°11' E 012°06'0 0.0
2018-Jul-20 14:52N 54°11' E 012°06'0 0.0
2018-Jul-20 14:19N 54°11' E 012°06'0 0.0
2018-Jul-20 13:58N 54°11' E 012°06'0 0.0
2018-Jul-20 13:28N 54°11' E 012°06'0 0.0
2018-Jul-20 11:52N 54°11' E 012°06'0 0.0
2018-Jul-20 06:43N 54°11' E 012°06'0 0.0
2018-Jul-20 06:16N 54°11' E 012°06'0 0.0
2018-Jul-20 05:43N 54°11' E 012°06'0 0.0
2018-Jul-20 05:30N 54°11' E 012°06'1 1.3
2018-Jul-20 05:00N 54°10' E 012°06'7 6.3
2018-Jul-20 03:49N 54°16' E 011°60'712.8
2018-Jul-20 03:16N 54°21' E 011°50'312.6
2018-Jul-20 03:00N 54°24' E 011°48'713.3
2018-Jul-20 02:30N 54°27' E 011°38'713.1
2018-Jul-20 02:00N 54°30' E 011°28'612.9
2018-Jul-20 01:30N 54°33' E 011°18'612.6
2018-Jul-20 01:00N 54°36' E 011°08'612.8
2018-Jul-20 00:30N 54°39' E 010°58'612.2
2018-Jul-20 00:00N 54°44' E 010°51'713.3
2018-Jul-19 23:30N 54°50' E 010°51'713.1
2018-Jul-19 23:01N 54°56' E 010°56'612.9
2018-Jul-19 22:31N 55°02' E 011°01'613.0
2018-Jul-19 22:00N 55°08' E 011°02'612.7
2018-Jul-19 21:31N 55°14' E 011°05'713.5
2018-Jul-19 20:59N 55°21' E 011°02'5312.8
2018-Jul-19 16:52N 56°08' E 010°20'4 9.6
2018-Jul-19 16:30N 56°10' E 010°14'1 1.1
2018-Jul-19 15:44N 56°09' E 010°13'0 0.0
2018-Jul-19 15:26N 56°09' E 010°13'0 0.0
2018-Jul-19 14:29N 56°09' E 010°13'0 0.0
2018-Jul-19 13:30N 56°09' E 010°13'0 0.0
2018-Jul-19 13:00N 56°09' E 010°13'0 0.0
2018-Jul-19 12:30N 56°09' E 010°13'0 0.0
2018-Jul-19 11:54N 56°09' E 010°13'0 0.0
2018-Jul-19 11:30N 56°09' E 010°13'0 0.0
2018-Jul-19 10:57N 56°09' E 010°13'0 0.0
2018-Jul-19 10:30N 56°09' E 010°13'0 0.0
2018-Jul-19 10:00N 56°09' E 010°13'0 0.0
2018-Jul-19 09:30N 56°09' E 010°13'0 0.0
2018-Jul-19 08:12N 56°09' E 010°13'0 0.0
2018-Jul-19 07:57N 56°09' E 010°13'0 0.0
2018-Jul-19 07:12N 56°09' E 010°13'0 0.0
2018-Jul-19 07:00N 56°09' E 010°13'0 0.5
2018-Jul-19 06:30N 56°10' E 010°14'1 1.1
2018-Jul-19 06:00N 56°10' E 010°15'4 7.0
2018-Jul-19 05:29N 56°08' E 010°20'613.5
2018-Jul-19 05:00N 56°05' E 010°31'916.8
2018-Jul-19 04:30N 56°03' E 010°46'815.3
2018-Jul-19 04:00N 56°07' E 010°57'1818.5
2018-Jul-19 03:03N 56°24' E 011°05'418.0
2018-Jul-19 02:50N 56°27' E 011°10'618.4
2018-Jul-19 02:30N 56°31' E 011°19'1519.0
2018-Jul-19 01:44N 56°40' E 011°40'519.3
2018-Jul-19 01:29N 56°42' E 011°47'917.5
2018-Jul-19 01:00N 56°51' E 011°49'1021.4
2018-Jul-19 00:30N 57°01' E 011°42'1121.4
2018-Jul-19 00:00N 57°10' E 011°34'1121.8
2018-Jul-18 23:30N 57°21' E 011°28'1121.5
2018-Jul-18 23:00N 57°30' E 011°18'1121.5
2018-Jul-18 22:30N 57°37' E 011°03'1020.7
2018-Jul-18 22:00N 57°44' E 010°48'1020.9
2018-Jul-18 21:30N 57°50' E 010°32'1122.1
2018-Jul-18 21:00N 57°51' E 010°11'1121.3
2018-Jul-18 20:31N 57°50' E 009°52'1121.7
2018-Jul-18 19:59N 57°50' E 009°30'1021.7
2018-Jul-18 19:30N 57°52' E 009°11'1122.0
2018-Jul-18 19:00N 57°53' E 008°50'1121.5
2018-Jul-18 18:31N 57°55' E 008°31'1121.5
2018-Jul-18 18:00N 58°01' E 008°13'815.5
2018-Jul-18 17:30N 58°06' E 008°03'3 5.3
2018-Jul-18 17:00N 58°08' E 007°60'0 0.0
2018-Jul-18 16:30N 58°08' E 007°60'0 0.0
2018-Jul-18 16:00N 58°08' E 007°60'0 0.0
2018-Jul-18 15:30N 58°08' E 007°60'0 0.0
2018-Jul-18 15:00N 58°08' E 007°60'0 0.0
2018-Jul-18 14:30N 58°08' E 007°60'0 0.0
2018-Jul-18 13:30N 58°08' E 007°60'0 0.0
2018-Jul-18 13:00N 58°08' E 007°60'0 0.0
2018-Jul-18 12:30N 58°08' E 007°60'0 0.0
2018-Jul-18 12:00N 58°08' E 007°60'0 0.0
2018-Jul-18 11:30N 58°08' E 007°60'0 0.0
2018-Jul-18 10:30N 58°08' E 007°60'0 0.0
2018-Jul-18 10:00N 58°08' E 007°60'0 0.8
2018-Jul-18 09:30N 58°08' E 007°59'4 8.3
2018-Jul-18 09:00N 58°05' E 008°04'611.6
2018-Jul-18 08:30N 57°59' E 008°06'815.9
2018-Jul-18 08:00N 57°51' E 008°06'1017.3
2018-Jul-18 07:24N 57°41' E 007°60'819.1
2018-Jul-18 07:00N 57°42' E 007°45'919.3
2018-Jul-18 06:30N 57°42' E 007°28'1019.0
2018-Jul-18 06:00N 57°43' E 007°10'4518.1
2018-Jul-18 03:31N 58°02' E 005°53'319.7
2018-Jul-18 03:22N 58°04' E 005°49'719.4
2018-Jul-18 03:00N 58°08' E 005°39'919.2
2018-Jul-18 02:30N 58°15' E 005°25'1019.8
2018-Jul-18 02:00N 58°21' E 005°11'1019.4
2018-Jul-18 01:30N 58°29' E 004°60'1019.4
2018-Jul-18 00:59N 58°37' E 004°50'1019.8
2018-Jul-18 00:30N 58°47' E 004°44'1020.0
2018-Jul-17 23:59N 58°56' E 004°38'1020.1
2018-Jul-17 23:29N 59°06' E 004°31'920.1
2018-Jul-17 23:00N 59°15' E 004°26'1219.9
2018-Jul-17 22:25N 59°27' E 004°25'5119.5
2018-Jul-17 19:50N 60°17' E 004°27'620.1
2018-Jul-17 19:31N 60°24' E 004°28'1019.8
2018-Jul-17 19:00N 60°34' E 004°28'1019.2
2018-Jul-17 18:30N 60°43' E 004°31'816.4
2018-Jul-17 18:00N 60°43' E 004°48'815.3
2018-Jul-17 17:30N 60°36' E 004°54'1019.4
2018-Jul-17 17:00N 60°27' E 005°01'611.7
2018-Jul-17 16:28N 60°23' E 005°12'4 7.0
2018-Jul-17 15:57N 60°24' E 005°19'0 0.0
2018-Jul-17 15:25N 60°24' E 005°19'0 0.0
2018-Jul-17 14:58N 60°24' E 005°19'0 0.0
2018-Jul-17 14:28N 60°24' E 005°19'0 0.0
2018-Jul-17 13:58N 60°24' E 005°19'0 0.0
2018-Jul-17 13:28N 60°24' E 005°19'0 0.0
2018-Jul-17 12:55N 60°24' E 005°19'0 0.0
2018-Jul-17 12:28N 60°24' E 005°19'0 0.0
2018-Jul-17 11:58N 60°24' E 005°19'0 0.0
2018-Jul-17 11:28N 60°24' E 005°19'0 0.0
2018-Jul-17 10:58N 60°24' E 005°19'0 0.0
2018-Jul-17 10:28N 60°24' E 005°19'0 0.0
2018-Jul-17 09:58N 60°24' E 005°19'0 0.0
2018-Jul-17 09:28N 60°24' E 005°19'0 0.0
2018-Jul-17 08:58N 60°24' E 005°19'0 0.0
2018-Jul-17 08:28N 60°24' E 005°19'0 0.0
2018-Jul-17 07:55N 60°24' E 005°19'0 0.0
2018-Jul-17 07:28N 60°24' E 005°19'0 0.0
2018-Jul-17 06:58N 60°24' E 005°19'0 0.0
2018-Jul-17 06:28N 60°24' E 005°19'0 0.0
2018-Jul-17 05:58N 60°24' E 005°19'0 0.0
2018-Jul-17 05:28N 60°24' E 005°19'0 0.6
2018-Jul-17 05:00N 60°24' E 005°18'3 6.8
2018-Jul-17 04:29N 60°23' E 005°12'4 9.1
2018-Jul-17 04:00N 60°25' E 005°04'814.9
2018-Jul-17 03:29N 60°32' E 004°57'917.9
2018-Jul-17 03:00N 60°40' E 004°50'613.2
2018-Jul-17 02:30N 60°45' E 004°41'918.0
2018-Jul-17 01:59N 60°50' E 004°25'919.0
2018-Jul-17 01:30N 60°59' E 004°19'1121.0
2018-Jul-17 01:00N 61°09' E 004°18'3620.7
2018-Jul-16 23:17N 61°45' E 004°23'620.6
2018-Jul-16 23:00N 61°50' E 004°27'1021.0
2018-Jul-16 22:30N 61°59' E 004°37'1121.1
2018-Jul-16 22:00N 62°08' E 004°49'1121.4
2018-Jul-16 21:30N 62°17' E 005°02'1121.4
2018-Jul-16 21:00N 62°25' E 005°17'1020.8
2018-Jul-16 20:30N 62°30' E 005°37'1019.7
2018-Jul-16 20:00N 62°27' E 005°57'612.7
2018-Jul-16 19:30N 62°23' E 006°08'918.4
2018-Jul-16 19:01N 62°25' E 006°27'918.2
2018-Jul-16 18:30N 62°27' E 006°46'815.4
2018-Jul-16 18:00N 62°21' E 006°56'917.5
2018-Jul-16 17:30N 62°13' E 007°02'816.0
2018-Jul-16 17:01N 62°06' E 006°53'0 0.1
2018-Jul-16 15:26N 62°06' E 006°53'2 3.1
2018-Jul-16 14:56N 62°06' E 006°56'3 7.7
2018-Jul-16 14:30N 62°05' E 007°03'4 7.8
2018-Jul-16 13:58N 62°06' E 007°11'0 0.4
2018-Jul-16 13:28N 62°06' E 007°11'0 0.0
2018-Jul-16 12:58N 62°06' E 007°11'0 0.0
2018-Jul-16 12:28N 62°06' E 007°11'0 0.0
2018-Jul-16 11:58N 62°06' E 007°11'0 0.0
2018-Jul-16 11:28N 62°06' E 007°11'0 0.0
2018-Jul-16 11:00N 62°06' E 007°11'0 0.0
2018-Jul-16 10:29N 62°06' E 007°11'0 0.0
2018-Jul-16 09:59N 62°06' E 007°11'0 0.0
2018-Jul-16 09:29N 62°06' E 007°11'0 0.0
2018-Jul-16 09:00N 62°06' E 007°11'0 0.0
2018-Jul-16 08:28N 62°06' E 007°11'0 0.0
2018-Jul-16 07:58N 62°06' E 007°11'0 0.0
2018-Jul-16 07:28N 62°06' E 007°11'0 0.0
2018-Jul-16 06:58N 62°06' E 007°11'0 0.0
2018-Jul-16 06:28N 62°06' E 007°11'0 0.0
2018-Jul-16 05:58N 62°06' E 007°11'0 0.1
2018-Jul-16 05:30N 62°06' E 007°11'0 0.2
2018-Jul-16 05:00N 62°06' E 007°11'2 4.8
2018-Jul-16 04:30N 62°06' E 007°06'4 8.3
2018-Jul-16 04:00N 62°09' E 006°59'815.1
2018-Jul-16 03:30N 62°16' E 007°02'816.1
2018-Jul-16 03:00N 62°24' E 006°56'713.6
2018-Jul-16 02:30N 62°27' E 006°43'713.7
2018-Jul-16 02:00N 62°25' E 006°29'714.9
2018-Jul-16 01:30N 62°23' E 006°13'714.4
2018-Jul-16 01:00N 62°26' E 005°60'815.0
2018-Jul-16 00:30N 62°30' E 005°45'917.5
2018-Jul-16 00:00N 62°31' E 005°26'918.4
2018-Jul-15 23:30N 62°26' E 005°10'1019.1
2018-Jul-15 23:00N 62°19' E 004°57'1019.1
2018-Jul-15 22:30N 62°12' E 004°43'18419.2
2018-Jul-15 12:57N 59°09' E 004°12'919.5
2018-Jul-15 12:30N 59°00' E 004°13'1019.9
2018-Jul-15 11:59N 58°53' E 004°27'919.7
2018-Jul-15 11:30N 58°46' E 004°40'1019.9
2018-Jul-15 11:00N 58°39' E 004°53'1020.0
2018-Jul-15 10:30N 58°31' E 005°06'1019.6
2018-Jul-15 09:59N 58°24' E 005°20'919.5
2018-Jul-15 09:30N 58°18' E 005°33'1019.8
2018-Jul-15 09:00N 58°11' E 005°47'1019.3
2018-Jul-15 08:30N 58°05' E 006°01'1019.8
2018-Jul-15 08:00N 57°58' E 006°15'2018.8
2018-Jul-15 06:55N 57°48' E 006°47'819.7
2018-Jul-15 06:30N 57°47' E 007°03'1019.3
2018-Jul-15 06:00N 57°47' E 007°21'919.0
2018-Jul-15 05:30N 57°46' E 007°39'1018.8
2018-Jul-15 05:00N 57°46' E 007°57'918.8
2018-Jul-15 04:31N 57°46' E 008°14'918.5
2018-Jul-15 04:00N 57°47' E 008°31'1418.2
2018-Jul-15 03:16N 57°48' E 008°57'1118.0
2018-Jul-15 02:38N 57°48' E 009°18'318.0
2018-Jul-15 02:29N 57°48' E 009°23'918.0
2018-Jul-15 02:00N 57°49' E 009°39'917.8
2018-Jul-15 01:30N 57°49' E 009°56'918.0
2018-Jul-15 01:00N 57°50' E 010°13'917.4
2018-Jul-15 00:30N 57°51' E 010°29'816.7
2018-Jul-15 00:01N 57°51' E 010°45'918.2
2018-Jul-14 23:30N 57°44' E 010°57'919.0
2018-Jul-14 23:00N 57°38' E 011°10'1019.5
2018-Jul-14 22:31N 57°31' E 011°23'1019.2
2018-Jul-14 22:00N 57°22' E 011°31'1019.1
2018-Jul-14 21:30N 57°13' E 011°37'1019.4
2018-Jul-14 21:00N 57°04' E 011°43'1019.3
2018-Jul-14 20:30N 56°55' E 011°50'1018.6
2018-Jul-14 19:59N 56°47' E 011°58'918.5
2018-Jul-14 19:31N 56°38' E 011°58'1019.0
2018-Jul-14 19:00N 56°29' E 012°01'1018.6
2018-Jul-14 18:29N 56°19' E 012°07'919.2
2018-Jul-14 18:00N 56°14' E 012°19'918.6
2018-Jul-14 17:31N 56°08' E 012°32'714.8
2018-Jul-14 17:00N 56°02' E 012°40'714.9
2018-Jul-14 16:30N 55°55' E 012°45'917.3
2018-Jul-14 16:00N 55°46' E 012°42'4 8.2
2018-Jul-14 15:30N 55°43' E 012°38'0 0.0
2018-Jul-14 15:00N 55°43' E 012°38'0 0.0
2018-Jul-14 14:00N 55°43' E 012°38'0 0.0
2018-Jul-14 13:28N 55°43' E 012°38'0 0.0
2018-Jul-14 13:00N 55°43' E 012°38'0 0.0
2018-Jul-14 12:30N 55°43' E 012°38'0 0.0
2018-Jul-14 11:59N 55°43' E 012°38'0 0.0
2018-Jul-14 11:28N 55°43' E 012°38'0 0.0
2018-Jul-14 10:58N 55°43' E 012°38'0 0.0
2018-Jul-14 10:28N 55°43' E 012°38'0 0.0
2018-Jul-14 09:58N 55°43' E 012°38'0 0.0
2018-Jul-14 09:30N 55°43' E 012°38'0 0.0
2018-Jul-14 08:59N 55°43' E 012°38'0 0.0
2018-Jul-14 08:28N 55°43' E 012°38'0 0.0
2018-Jul-14 07:58N 55°43' E 012°38'0 0.0
2018-Jul-14 07:28N 55°43' E 012°38'0 0.0
2018-Jul-14 06:58N 55°43' E 012°38'0 0.0
2018-Jul-14 06:28N 55°43' E 012°38'0 0.0
2018-Jul-14 06:00N 55°43' E 012°38'0 0.0
2018-Jul-14 05:31N 55°43' E 012°38'1 1.7
2018-Jul-14 05:00N 55°43' E 012°39'714.5
2018-Jul-14 04:30N 55°50' E 012°42'918.5
2018-Jul-14 04:00N 55°60' E 012°40'1019.8
2018-Jul-14 03:30N 56°07' E 012°30'1020.3
2018-Jul-14 03:01N 56°12' E 012°13'1120.7
2018-Jul-14 02:30N 56°09' E 011°55'1120.8
2018-Jul-14 01:59N 56°08' E 011°36'1020.7
2018-Jul-14 01:30N 56°08' E 011°18'1119.2
2018-Jul-14 00:56N 56°00' E 011°05'921.3
2018-Jul-14 00:30N 55°53' E 010°55'1318.0
2018-Jul-13 23:47N 55°41' E 010°48'1420.1
2018-Jul-13 23:05N 55°27' E 010°57'219.6
2018-Jul-13 22:59N 55°26' E 010°58'919.0
2018-Jul-13 22:30N 55°17' E 011°04'918.7
2018-Jul-13 22:00N 55°08' E 011°03'1019.8
2018-Jul-13 21:30N 54°58' E 011°00'1019.4
2018-Jul-13 21:00N 54°50' E 010°52'917.6
2018-Jul-13 20:30N 54°41' E 010°56'918.2
2018-Jul-13 20:00N 54°37' E 011°09'918.5
2018-Jul-13 19:30N 54°32' E 011°23'918.2
2018-Jul-13 18:59N 54°28' E 011°38'817.5
2018-Jul-13 18:30N 54°24' E 011°51'917.1
2018-Jul-13 18:00N 54°18' E 012°02'612.0
2018-Jul-13 17:30N 54°13' E 012°05'2 4.5
2018-Jul-13 17:01N 54°10' E 012°06'0 0.0
2018-Jul-13 16:29N 54°10' E 012°06'0 0.0
2018-Jul-13 15:59N 54°10' E 012°06'0 0.0
2018-Jul-13 15:23N 54°10' E 012°06'0 0.0
2018-Jul-13 14:59N 54°10' E 012°06'0 0.0
2018-Jul-13 13:59N 54°10' E 012°06'0 0.0
2018-Jul-13 13:29N 54°10' E 012°06'0 0.0
2018-Jul-13 12:53N 54°10' E 012°06'0 0.0
2018-Jul-13 12:26N 54°10' E 012°06'0 0.0
2018-Jul-13 11:59N 54°10' E 012°06'0 0.0
2018-Jul-13 11:29N 54°10' E 012°06'0 0.0
2018-Jul-13 10:44N 54°10' E 012°06'0 0.0
2018-Jul-13 10:23N 54°10' E 012°06'0 0.0
2018-Jul-13 08:38N 54°10' E 012°06'0 0.1
2018-Jul-13 08:29N 54°10' E 012°06'0 0.0
2018-Jul-13 07:59N 54°10' E 012°06'0 0.0
2018-Jul-13 07:29N 54°10' E 012°06'0 0.0
2018-Jul-13 06:59N 54°10' E 012°06'0 0.0
2018-Jul-13 06:29N 54°10' E 012°06'0 0.0
2018-Jul-13 05:59N 54°10' E 012°06'0 0.0
2018-Jul-13 05:29N 54°10' E 012°06'0 0.0
2018-Jul-13 05:00N 54°10' E 012°06'1 1.9
2018-Jul-13 04:30N 54°11' E 012°05'5 9.6
2018-Jul-13 04:00N 54°16' E 012°01'5 9.9
2018-Jul-13 03:30N 54°19' E 011°56'917.5
2018-Jul-13 03:00N 54°25' E 011°44'918.6
2018-Jul-13 02:30N 54°29' E 011°30'714.1
2018-Jul-13 02:00N 54°32' E 011°19'713.4
2018-Jul-13 01:30N 54°35' E 011°09'713.0
2018-Jul-13 01:00N 54°39' E 010°59'612.5
2018-Jul-13 00:30N 54°43' E 010°51'612.8
2018-Jul-13 00:00N 54°49' E 010°51'612.0
2018-Jul-12 23:30N 54°55' E 010°54'612.0
2018-Jul-12 23:00N 54°60' E 011°01'612.3
2018-Jul-12 22:30N 55°06' E 011°02'611.9
2018-Jul-12 22:00N 55°12' E 011°05'611.9
2018-Jul-12 21:30N 55°18' E 011°03'712.4
2018-Jul-12 20:58N 55°24' E 010°60'613.0
2018-Jul-12 20:30N 55°29' E 010°54'1615.0
2018-Jul-12 19:26N 55°45' E 010°48'717.0
2018-Jul-12 19:00N 55°52' E 010°52'816.9
2018-Jul-12 18:30N 55°58' E 011°01'510.2
2018-Jul-12 18:00N 56°03' E 010°57'1817.9
2018-Jul-12 16:59N 56°07' E 010°25'611.8
2018-Jul-12 16:27N 56°10' E 010°15'1 2.2
2018-Jul-12 16:00N 56°09' E 010°13'0 0.0
2018-Jul-12 15:08N 56°09' E 010°13'0 0.0
2018-Jul-12 14:56N 56°09' E 010°13'0 0.0
2018-Jul-12 14:20N 56°09' E 010°13'0 0.0
2018-Jul-12 13:59N 56°09' E 010°13'0 0.0
2018-Jul-12 13:26N 56°09' E 010°13'0 0.0
2018-Jul-12 12:56N 56°09' E 010°13'0 0.0
2018-Jul-12 12:29N 56°09' E 010°13'0 0.0
2018-Jul-12 11:59N 56°09' E 010°13'0 0.0
2018-Jul-12 11:29N 56°09' E 010°13'0 0.0
2018-Jul-12 10:56N 56°09' E 010°13'0 0.0
2018-Jul-12 10:29N 56°09' E 010°13'0 0.0
2018-Jul-12 09:59N 56°09' E 010°13'0 0.0
2018-Jul-12 09:29N 56°09' E 010°13'0 0.0
2018-Jul-12 08:56N 56°09' E 010°13'0 0.0
2018-Jul-12 08:26N 56°09' E 010°13'0 0.0
2018-Jul-12 07:56N 56°09' E 010°13'0 0.0
2018-Jul-12 07:18N 56°09' E 010°13'0 0.1
2018-Jul-12 07:00N 56°09' E 010°13'  

Dump ship's entire track history